createdAt,value
2022-12-13T00:01:51.048Z,-8.50
2022-12-13T00:04:19.448Z,-8.50
2022-12-13T00:06:47.410Z,-8.50
2022-12-13T00:09:15.946Z,-8.60
2022-12-13T00:11:43.897Z,-8.60
2022-12-13T00:14:13.883Z,-8.60
2022-12-13T00:16:41.617Z,-8.60
2022-12-13T00:19:08.506Z,-8.60
2022-12-13T00:21:35.285Z,-8.70
2022-12-13T00:24:05.569Z,-8.70
2022-12-13T00:26:33.755Z,-8.70
2022-12-13T00:29:02.645Z,-8.70
2022-12-13T00:34:19.113Z,-8.80
2022-12-13T00:36:46.489Z,-8.70
2022-12-13T00:39:14.058Z,-8.70
2022-12-13T00:41:41.974Z,-8.70
2022-12-13T00:44:13.876Z,-8.70
2022-12-13T00:46:41.142Z,-8.70
2022-12-13T00:49:09.983Z,-8.70
2022-12-13T00:51:37.006Z,-8.70
2022-12-13T00:54:04.313Z,-8.70
2022-12-13T00:56:33.061Z,-8.70
2022-12-13T00:59:00.336Z,-8.60
2022-12-13T01:01:30.211Z,-8.60
2022-12-13T01:04:01.289Z,-8.60
2022-12-13T01:06:31.524Z,-8.60
2022-12-13T01:08:58.374Z,-8.60
2022-12-13T01:11:25.901Z,-8.60
2022-12-13T01:13:52.853Z,-8.60
2022-12-13T01:16:19.797Z,-8.70
2022-12-13T01:18:47.585Z,-8.70
2022-12-13T01:21:17.350Z,-8.80
2022-12-13T01:23:44.905Z,-8.80
2022-12-13T01:26:15.828Z,-8.80
2022-12-13T01:28:43.280Z,-8.80
2022-12-13T01:31:15.697Z,-8.80
2022-12-13T01:33:43.133Z,-8.90
2022-12-13T01:36:14.215Z,-8.90
2022-12-13T01:38:41.117Z,-8.90
2022-12-13T01:41:17.638Z,-9.00
2022-12-13T01:43:47.694Z,-9.00
2022-12-13T01:46:16.218Z,-9.00
2022-12-13T01:48:48.766Z,-9.00
2022-12-13T01:51:19.063Z,-9.00
2022-12-13T01:53:48.892Z,-9.00
2022-12-13T01:56:22.409Z,-9.00
2022-12-13T01:58:56.383Z,-9.00
2022-12-13T02:01:24.383Z,-9.00
2022-12-13T02:03:51.243Z,-9.00
2022-12-13T02:06:33.809Z,-9.00
2022-12-13T02:09:01.208Z,-9.00
2022-12-13T02:11:28.527Z,-9.00
2022-12-13T02:13:55.314Z,-9.00
2022-12-13T02:16:42.944Z,-9.00
2022-12-13T02:19:33.697Z,-9.00
2022-12-13T02:22:19.757Z,-9.00
2022-12-13T02:25:14.065Z,-9.10
2022-12-13T02:28:00.597Z,-9.10
2022-12-13T02:30:39.158Z,-9.10
2022-12-13T02:33:40.141Z,-9.10
2022-12-13T02:36:14.667Z,-9.20
2022-12-13T02:38:58.074Z,-9.20
2022-12-13T02:41:36.661Z,-9.20
2022-12-13T02:44:23.207Z,-9.20
2022-12-13T02:46:53.806Z,-9.30
2022-12-13T02:49:23.683Z,-9.30
2022-12-13T02:51:52.234Z,-9.30
2022-12-13T02:54:19.046Z,-9.30
2022-12-13T02:56:59.493Z,-9.30
2022-12-13T02:59:37.325Z,-9.30
2022-12-13T03:02:31.696Z,-9.20
2022-12-13T03:05:47.274Z,-9.20
2022-12-13T03:08:23.191Z,-9.30
2022-12-13T03:11:03.451Z,-9.30
2022-12-13T03:13:36.763Z,-9.30
2022-12-13T03:16:22.703Z,-9.30
2022-12-13T03:18:57.044Z,-9.30
2022-12-13T03:21:24.004Z,-9.30
2022-12-13T03:23:50.962Z,-9.30
2022-12-13T03:26:21.933Z,-9.40
2022-12-13T03:28:50.387Z,-9.40
2022-12-13T03:31:17.365Z,-9.40
2022-12-13T03:33:44.602Z,-9.40
2022-12-13T03:36:12.569Z,-9.40
2022-12-13T03:38:40.701Z,-9.40
2022-12-13T03:41:14.958Z,-9.40
2022-12-13T03:43:42.404Z,-9.40
2022-12-13T03:46:09.705Z,-9.40
2022-12-13T03:48:36.638Z,-9.40
2022-12-13T03:51:03.648Z,-9.40
2022-12-13T03:53:33.460Z,-9.40
2022-12-13T03:56:05.717Z,-9.40
2022-12-13T03:58:35.649Z,-9.40
2022-12-13T04:01:08.624Z,-9.40
2022-12-13T04:03:36.939Z,-9.40
2022-12-13T04:06:04.954Z,-9.40
2022-12-13T04:08:31.978Z,-9.40
2022-12-13T04:10:59.096Z,-9.40
2022-12-13T04:13:35.073Z,-9.40
2022-12-13T04:16:03.059Z,-9.50
2022-12-13T04:18:30.049Z,-9.50
2022-12-13T04:20:57.601Z,-9.50
2022-12-13T04:23:24.664Z,-9.50
2022-12-13T04:25:51.627Z,-9.50
2022-12-13T04:28:22.358Z,-9.60
2022-12-13T04:30:53.128Z,-9.60
2022-12-13T04:33:22.197Z,-9.60
2022-12-13T04:35:50.159Z,-9.60
2022-12-13T04:38:17.292Z,-9.70
2022-12-13T04:40:44.174Z,-9.70
2022-12-13T04:43:11.097Z,-9.70
2022-12-13T04:45:38.875Z,-9.70
2022-12-13T04:48:06.785Z,-9.80
2022-12-13T04:50:33.844Z,-9.80
2022-12-13T04:53:00.808Z,-9.70
2022-12-13T04:55:27.795Z,-9.70
2022-12-13T04:57:54.644Z,-9.70
2022-12-13T05:00:23.268Z,-9.70
2022-12-13T05:02:50.563Z,-9.70
2022-12-13T05:05:18.071Z,-9.70
2022-12-13T05:07:45.650Z,-9.60
2022-12-13T05:10:13.968Z,-9.60
2022-12-13T05:12:59.911Z,-9.60
2022-12-13T05:15:28.145Z,-9.60
2022-12-13T05:17:54.981Z,-9.60
2022-12-13T05:20:21.834Z,-9.60
2022-12-13T05:22:48.653Z,-9.70
2022-12-13T05:25:15.622Z,-9.70
2022-12-13T05:27:42.594Z,-9.70
2022-12-13T05:30:10.957Z,-9.70
2022-12-13T05:32:43.197Z,-9.70
2022-12-13T05:35:22.944Z,-9.80
2022-12-13T05:37:55.001Z,-9.80
2022-12-13T05:40:27.426Z,-9.80
2022-12-13T05:43:01.413Z,-9.80
2022-12-13T05:45:30.233Z,-9.80
2022-12-13T05:47:57.114Z,-9.80
2022-12-13T05:50:24.571Z,-9.90
2022-12-13T05:52:54.497Z,-9.80
2022-12-13T05:55:21.815Z,-9.90
2022-12-13T05:57:50.686Z,-9.90
2022-12-13T06:00:29.065Z,-9.90
2022-12-13T06:03:00.877Z,-9.90
2022-12-13T06:05:30.304Z,-9.90
2022-12-13T06:07:58.186Z,-9.90
2022-12-13T06:10:34.741Z,-9.90
2022-12-13T06:13:06.695Z,-10.00
2022-12-13T06:15:49.519Z,-10.00
2022-12-13T06:18:16.375Z,-10.00
2022-12-13T06:20:43.116Z,-10.00
2022-12-13T06:23:10.142Z,-10.00
2022-12-13T06:25:37.364Z,-10.00
2022-12-13T06:28:04.451Z,-10.00
2022-12-13T06:30:31.895Z,-10.00
2022-12-13T06:32:59.065Z,-10.00
2022-12-13T06:35:28.643Z,-10.00
2022-12-13T06:38:00.813Z,-10.00
2022-12-13T06:40:30.764Z,-10.00
2022-12-13T06:42:58.091Z,-9.90
2022-12-13T06:45:25.663Z,-9.90
2022-12-13T06:47:52.479Z,-9.80
2022-12-13T06:50:19.318Z,-9.80
2022-12-13T06:52:47.230Z,-9.80
2022-12-13T06:55:14.406Z,-9.70
2022-12-13T06:57:41.810Z,-9.60
2022-12-13T07:00:10.558Z,-9.60
2022-12-13T07:02:38.466Z,-9.50
2022-12-13T07:05:06.082Z,-9.40
2022-12-13T07:07:33.031Z,-9.40
2022-12-13T07:10:00.094Z,-9.30
2022-12-13T07:12:26.905Z,-9.30
2022-12-13T07:14:54.917Z,-9.30
2022-12-13T07:17:32.953Z,-9.20
2022-12-13T07:20:00.881Z,-9.20
2022-12-13T07:22:28.103Z,-9.20
2022-12-13T07:24:56.389Z,-9.10
2022-12-13T07:27:23.613Z,-9.10
2022-12-13T07:29:50.670Z,-9.10
2022-12-13T07:32:17.458Z,-9.00
2022-12-13T07:34:44.244Z,-9.00
2022-12-13T07:37:30.447Z,-9.00
2022-12-13T07:40:03.418Z,-8.90
2022-12-13T07:42:31.576Z,-8.90
2022-12-13T07:44:58.363Z,-8.90
2022-12-13T07:47:30.361Z,-8.90
2022-12-13T07:49:58.012Z,-8.90
2022-12-13T07:52:25.160Z,-8.80
2022-12-13T07:54:53.012Z,-8.80
2022-12-13T07:57:20.250Z,-8.70
2022-12-13T07:59:47.010Z,-8.70
2022-12-13T08:02:14.774Z,-8.70
2022-12-13T08:04:43.871Z,-8.60
2022-12-13T08:07:11.034Z,-8.60
2022-12-13T08:09:38.158Z,-8.50
2022-12-13T08:12:05.547Z,-8.50
2022-12-13T08:14:32.541Z,-8.40
2022-12-13T08:16:59.620Z,-8.30
2022-12-13T08:19:26.597Z,-8.30
2022-12-13T08:21:55.856Z,-8.20
2022-12-13T08:24:24.977Z,-8.20
2022-12-13T08:26:54.713Z,-8.00
2022-12-13T08:29:22.819Z,-8.00
2022-12-13T08:32:06.559Z,-7.90
2022-12-13T08:34:33.568Z,-7.80
2022-12-13T08:37:01.130Z,-7.80
2022-12-13T08:39:37.314Z,-7.70
2022-12-13T08:42:15.514Z,-7.60
2022-12-13T08:44:46.458Z,-7.60
2022-12-13T08:47:23.006Z,-7.60
2022-12-13T08:49:56.116Z,-7.50
2022-12-13T08:52:31.907Z,-7.40
2022-12-13T08:54:58.784Z,-7.30
2022-12-13T08:57:25.711Z,-7.20
2022-12-13T08:59:54.448Z,-7.20
2022-12-13T09:02:21.531Z,-7.00
2022-12-13T09:04:49.004Z,-6.90
2022-12-13T09:07:15.849Z,-6.90
2022-12-13T09:09:42.684Z,-6.80
2022-12-13T09:12:29.866Z,-6.70
2022-12-13T09:15:01.514Z,-6.60
2022-12-13T09:17:36.912Z,-6.50
2022-12-13T09:20:09.964Z,-6.40
2022-12-13T09:22:54.454Z,-6.30
2022-12-13T09:25:37.255Z,-6.20
2022-12-13T09:28:08.559Z,-6.10
2022-12-13T09:30:38.702Z,-5.90
2022-12-13T09:33:28.382Z,-5.80
2022-12-13T09:35:53.163Z,-5.70
2022-12-13T09:38:20.460Z,-5.50
2022-12-13T09:40:50.449Z,-5.30
2022-12-13T09:43:43.145Z,-5.10
2022-12-13T09:46:44.902Z,-4.60
2022-12-13T09:49:36.172Z,-4.20
2022-12-13T09:52:10.806Z,-3.80
2022-12-13T09:54:47.712Z,-3.40
2022-12-13T09:57:32.931Z,-3.10
2022-12-13T10:00:06.419Z,-2.90
2022-12-13T10:02:57.392Z,-2.70
2022-12-13T10:05:39.215Z,-2.50
2022-12-13T10:08:13.752Z,-2.30
2022-12-13T10:10:41.131Z,-2.10
2022-12-13T10:13:28.512Z,-2.00
2022-12-13T10:15:59.856Z,-1.90
2022-12-13T10:18:40.943Z,-1.80
2022-12-13T10:21:16.283Z,-1.60
2022-12-13T10:24:22.750Z,-1.20
2022-12-13T10:26:37.575Z,-0.80
2022-12-13T10:29:06.143Z,-0.60
2022-12-13T10:31:52.573Z,-0.80
2022-12-13T10:34:30.126Z,-0.80
2022-12-13T10:36:59.680Z,-0.90
2022-12-13T10:39:43.472Z,-0.90
2022-12-13T10:42:22.536Z,-1.00
2022-12-13T10:45:15.379Z,-1.00
2022-12-13T10:47:45.478Z,-0.90
2022-12-13T10:50:42.105Z,-0.70
2022-12-13T10:53:19.619Z,-0.30
2022-12-13T10:55:56.015Z,-0.20
2022-12-13T10:58:23.414Z,-0.20
2022-12-13T11:00:50.589Z,-0.10
2022-12-13T11:03:32.870Z,0.10
2022-12-13T11:06:18.117Z,0.40
2022-12-13T11:08:44.910Z,0.70
2022-12-13T11:11:12.518Z,0.70
2022-12-13T11:13:52.934Z,0.50
2022-12-13T11:16:22.788Z,0.30
2022-12-13T11:18:53.860Z,0.10
2022-12-13T11:21:26.604Z,0.10
2022-12-13T11:23:56.351Z,-0.10
2022-12-13T11:26:31.012Z,-0.30
2022-12-13T11:29:22.813Z,-0.40
2022-12-13T11:32:15.512Z,-0.30
2022-12-13T11:35:24.845Z,-0.70
2022-12-13T11:38:15.609Z,-1.10
2022-12-13T11:41:07.422Z,-1.60
2022-12-13T11:43:44.001Z,-1.70
2022-12-13T11:46:36.237Z,-1.70
2022-12-13T11:49:18.138Z,-1.90
2022-12-13T11:51:52.040Z,-2.00
2022-12-13T11:54:50.649Z,-2.20
2022-12-13T11:57:33.262Z,-2.30
2022-12-13T12:00:34.099Z,-2.20
2022-12-13T12:03:13.954Z,-2.20
2022-12-13T12:05:49.473Z,-2.30
2022-12-13T12:08:47.376Z,-2.10
2022-12-13T12:11:39.839Z,-1.80
2022-12-13T12:14:39.007Z,-1.70
2022-12-13T12:17:07.059Z,-1.70
2022-12-13T12:19:40.002Z,-1.80
2022-12-13T12:22:28.628Z,-1.90
2022-12-13T12:25:33.208Z,-2.00
2022-12-13T12:28:04.749Z,-2.10
2022-12-13T12:30:49.775Z,-2.10
2022-12-13T12:33:22.644Z,-2.00
2022-12-13T12:36:08.422Z,-2.00
2022-12-13T12:39:34.604Z,-2.20
2022-12-13T12:42:28.327Z,-2.20
2022-12-13T12:45:17.568Z,-2.40
2022-12-13T12:51:28.350Z,-3.00
2022-12-13T12:54:19.898Z,-3.10
2022-12-13T12:57:27.768Z,-3.20
2022-12-13T13:00:16.203Z,-3.30
2022-12-13T13:03:37.396Z,-3.30
2022-12-13T13:06:28.954Z,-3.30
2022-12-13T13:09:03.467Z,-3.30
2022-12-13T13:11:34.868Z,-3.20
2022-12-13T13:14:33.861Z,-3.20
2022-12-13T13:17:23.656Z,-3.20
2022-12-13T13:20:17.494Z,-3.30
2022-12-13T13:22:53.786Z,-3.40
2022-12-13T13:25:35.182Z,-3.30
2022-12-13T13:28:19.027Z,-3.20
2022-12-13T13:31:04.299Z,-3.10
2022-12-13T13:33:49.820Z,-3.20
2022-12-13T13:36:39.458Z,-3.30
2022-12-13T13:39:19.538Z,-3.40
2022-12-13T13:42:14.634Z,-3.50
2022-12-13T13:44:51.207Z,-3.50
2022-12-13T13:47:20.939Z,-3.60
2022-12-13T13:50:11.044Z,-3.70
2022-12-13T13:52:56.452Z,-3.90
2022-12-13T13:55:37.368Z,-4.00
2022-12-13T13:58:38.203Z,-4.00
2022-12-13T14:01:17.391Z,-4.10
2022-12-13T14:04:12.495Z,-4.20
2022-12-13T14:06:42.718Z,-4.30
2022-12-13T14:09:12.749Z,-4.30
2022-12-13T14:11:48.386Z,-4.30
2022-12-13T14:14:52.487Z,-4.30
2022-12-13T14:17:53.810Z,-4.40
2022-12-13T14:20:47.603Z,-4.40
2022-12-13T14:23:27.640Z,-4.50
2022-12-13T14:25:57.787Z,-4.60
2022-12-13T14:28:32.812Z,-4.70
2022-12-13T14:30:59.971Z,-4.70
2022-12-13T14:33:27.497Z,-4.70
2022-12-13T14:36:00.573Z,-4.70
2022-12-13T14:38:31.618Z,-4.80
2022-12-13T14:41:01.524Z,-4.80
2022-12-13T14:43:33.949Z,-4.90
2022-12-13T14:46:06.633Z,-4.90
2022-12-13T14:48:43.238Z,-4.90
2022-12-13T14:51:31.593Z,-5.00
2022-12-13T14:53:59.953Z,-5.00
2022-12-13T14:56:28.552Z,-5.10
2022-12-13T14:58:59.983Z,-5.10
2022-12-13T15:01:30.057Z,-5.10
2022-12-13T15:04:23.412Z,-5.10
2022-12-13T15:07:01.366Z,-5.10
2022-12-13T15:09:29.576Z,-5.10
2022-12-13T15:12:14.588Z,-5.20
2022-12-13T15:14:56.463Z,-5.20
2022-12-13T15:17:38.259Z,-5.20
2022-12-13T15:20:30.916Z,-5.20
2022-12-13T15:23:21.285Z,-5.30
2022-12-13T15:26:07.358Z,-5.30
2022-12-13T15:28:36.969Z,-5.40
2022-12-13T15:31:05.914Z,-5.40
2022-12-13T15:33:36.727Z,-5.40
2022-12-13T15:36:23.827Z,-5.40
2022-12-13T15:38:53.372Z,-5.40
2022-12-13T15:41:26.681Z,-5.50
2022-12-13T15:43:57.236Z,-5.40
2022-12-13T15:46:29.913Z,-5.50
2022-12-13T15:49:00.860Z,-5.50
2022-12-13T15:51:28.461Z,-5.50
2022-12-13T15:54:09.173Z,-5.50
2022-12-13T15:56:43.914Z,-5.50
2022-12-13T15:59:27.241Z,-5.50
2022-12-13T16:01:58.192Z,-5.50
2022-12-13T16:04:29.829Z,-5.50
2022-12-13T16:06:57.394Z,-5.60
2022-12-13T16:09:35.447Z,-5.60
2022-12-13T16:12:06.781Z,-5.60
2022-12-13T16:14:48.662Z,-5.60
2022-12-13T16:17:24.930Z,-5.60
2022-12-13T16:19:59.676Z,-5.60
2022-12-13T16:22:29.119Z,-5.60
2022-12-13T16:24:56.518Z,-5.60
2022-12-13T16:27:23.374Z,-5.60
2022-12-13T16:29:50.329Z,-5.60
2022-12-13T16:32:17.450Z,-5.60
2022-12-13T16:34:44.653Z,-5.60
2022-12-13T16:37:26.187Z,-5.60
2022-12-13T16:39:55.209Z,-5.60
2022-12-13T16:42:26.329Z,-5.60
2022-12-13T16:45:17.857Z,-5.70
2022-12-13T16:47:48.450Z,-5.70
2022-12-13T16:50:19.214Z,-5.70
2022-12-13T16:52:46.448Z,-5.70
2022-12-13T16:55:13.415Z,-5.70
2022-12-13T16:57:40.574Z,-5.70
2022-12-13T17:00:10.761Z,-5.70
2022-12-13T17:02:38.298Z,-5.70
2022-12-13T17:05:05.808Z,-5.70
2022-12-13T17:07:35.381Z,-5.70
2022-12-13T17:10:02.584Z,-5.70
2022-12-13T17:12:29.458Z,-5.70
2022-12-13T17:14:56.796Z,-5.70
2022-12-13T17:17:25.654Z,-5.70
2022-12-13T17:19:52.497Z,-5.70
2022-12-13T17:22:19.354Z,-5.70
2022-12-13T17:24:46.632Z,-5.70
2022-12-13T17:27:14.272Z,-5.70
2022-12-13T17:29:41.174Z,-5.70
2022-12-13T17:32:07.991Z,-5.70
2022-12-13T17:34:35.031Z,-5.70
2022-12-13T17:37:06.995Z,-5.70
2022-12-13T17:39:36.941Z,-5.70
2022-12-13T17:42:03.841Z,-5.70
2022-12-13T17:44:30.686Z,-5.70
2022-12-13T17:46:57.417Z,-5.70
2022-12-13T17:49:24.952Z,-5.70
2022-12-13T17:51:54.609Z,-5.70
2022-12-13T17:54:25.589Z,-5.70
2022-12-13T17:56:53.072Z,-5.70
2022-12-13T17:59:20.284Z,-5.70
2022-12-13T18:01:47.883Z,-5.70
2022-12-13T18:04:14.951Z,-5.80
2022-12-13T18:06:41.910Z,-5.70
2022-12-13T18:09:09.264Z,-5.70
2022-12-13T18:11:36.344Z,-5.70
2022-12-13T18:14:08.993Z,-5.80
2022-12-13T18:16:38.509Z,-5.80
2022-12-13T18:19:32.349Z,-5.70
2022-12-13T18:21:59.667Z,-5.70
2022-12-13T18:24:27.524Z,-5.70
2022-12-13T18:26:54.312Z,-5.80
2022-12-13T18:29:21.140Z,-5.80
2022-12-13T18:31:47.968Z,-5.80
2022-12-13T18:34:14.748Z,-5.80
2022-12-13T18:36:41.521Z,-5.70
2022-12-13T18:39:08.432Z,-5.70
2022-12-13T18:41:36.256Z,-5.70
2022-12-13T18:44:06.540Z,-5.70
2022-12-13T18:46:37.895Z,-5.60
2022-12-13T18:49:06.445Z,-5.60
2022-12-13T18:51:34.239Z,-5.60
2022-12-13T18:54:01.192Z,-5.60
2022-12-13T18:56:28.564Z,-5.60
2022-12-13T18:58:55.689Z,-5.60
2022-12-13T19:01:22.981Z,-5.50
2022-12-13T19:03:51.151Z,-5.50
2022-12-13T19:06:21.171Z,-5.50
2022-12-13T19:08:53.876Z,-5.40
2022-12-13T19:11:20.991Z,-5.40
2022-12-13T19:13:48.880Z,-5.40
2022-12-13T19:16:22.081Z,-5.30
2022-12-13T19:18:49.230Z,-5.30
2022-12-13T19:21:18.354Z,-5.30
2022-12-13T19:23:49.567Z,-5.30
2022-12-13T19:26:21.444Z,-5.30
2022-12-13T19:28:48.241Z,-5.30
2022-12-13T19:31:15.999Z,-5.20
2022-12-13T19:33:43.426Z,-5.30
2022-12-13T19:36:11.332Z,-5.30
2022-12-13T19:38:42.047Z,-5.20
2022-12-13T19:41:19.170Z,-5.30
2022-12-13T19:43:52.783Z,-5.30
2022-12-13T19:46:20.469Z,-5.30
2022-12-13T19:48:47.642Z,-5.20
2022-12-13T19:51:14.486Z,-5.20
2022-12-13T19:53:41.673Z,-5.20
2022-12-13T19:56:10.841Z,-5.20
2022-12-13T19:58:39.073Z,-5.20
2022-12-13T20:01:07.080Z,-5.20
2022-12-13T20:03:35.578Z,-5.10
2022-12-13T20:06:03.337Z,-5.10
2022-12-13T20:08:30.467Z,-5.00
2022-12-13T20:11:08.053Z,-5.00
2022-12-13T20:13:36.058Z,-5.00
2022-12-13T20:16:03.158Z,-5.00
2022-12-13T20:18:30.714Z,-5.00
2022-12-13T20:21:13.669Z,-5.00
2022-12-13T20:23:48.649Z,-5.00
2022-12-13T20:26:21.645Z,-5.00
2022-12-13T20:28:49.598Z,-5.00
2022-12-13T20:31:23.402Z,-5.00
2022-12-13T20:34:02.342Z,-5.00
2022-12-13T20:36:31.346Z,-4.90
2022-12-13T20:39:00.095Z,-5.00
2022-12-13T20:41:29.408Z,-4.90
2022-12-13T20:43:58.136Z,-4.90
2022-12-13T20:46:26.030Z,-4.90
2022-12-13T20:48:53.370Z,-4.90
2022-12-13T20:51:22.819Z,-4.90
2022-12-13T20:53:50.989Z,-4.80
2022-12-13T20:56:24.046Z,-4.80
2022-12-13T20:58:50.876Z,-4.80
2022-12-13T21:01:20.373Z,-4.80
2022-12-13T21:03:47.970Z,-4.80
2022-12-13T21:06:14.920Z,-4.80
2022-12-13T21:08:51.097Z,-4.80
2022-12-13T21:11:25.800Z,-4.80
2022-12-13T21:14:13.709Z,-4.70
2022-12-13T21:16:57.397Z,-4.80
2022-12-13T21:19:33.068Z,-4.80
2022-12-13T21:22:02.870Z,-4.80
2022-12-13T21:24:30.098Z,-4.80
2022-12-13T21:26:56.947Z,-4.80
2022-12-13T21:29:23.866Z,-4.70
2022-12-13T21:31:53.202Z,-4.80
2022-12-13T21:34:21.482Z,-4.80
2022-12-13T21:36:50.895Z,-4.80
2022-12-13T21:39:24.662Z,-4.80
2022-12-13T21:41:52.183Z,-4.80
2022-12-13T21:44:19.555Z,-4.80
2022-12-13T21:47:11.284Z,-4.80
2022-12-13T21:49:34.018Z,-4.80
2022-12-13T21:52:01.067Z,-4.90
2022-12-13T21:54:28.214Z,-4.90
2022-12-13T21:57:13.683Z,-4.90
2022-12-13T21:59:40.451Z,-4.90
2022-12-13T22:02:12.816Z,-4.90
2022-12-13T22:04:57.021Z,-4.90
2022-12-13T22:07:26.350Z,-4.90
2022-12-13T22:09:53.818Z,-4.90
2022-12-13T22:12:38.164Z,-5.00
2022-12-13T22:15:11.678Z,-5.00
2022-12-13T22:17:39.218Z,-4.90
2022-12-13T22:20:09.648Z,-5.00
2022-12-13T22:22:38.810Z,-5.00
2022-12-13T22:25:06.992Z,-5.00
2022-12-13T22:27:34.179Z,-5.00
2022-12-13T22:30:01.351Z,-5.00
2022-12-13T22:32:32.157Z,-5.00
2022-12-13T22:34:59.247Z,-5.00
2022-12-13T22:37:26.443Z,-5.00
2022-12-13T22:39:53.534Z,-5.10
2022-12-13T22:42:21.156Z,-5.10
2022-12-13T22:44:48.168Z,-5.10
2022-12-13T22:47:15.013Z,-5.10
2022-12-13T22:49:41.831Z,-5.10
2022-12-13T22:52:09.240Z,-5.10
2022-12-13T22:54:36.071Z,-5.10
2022-12-13T22:57:03.385Z,-5.10
2022-12-13T22:59:30.392Z,-5.10
2022-12-13T23:02:02.145Z,-5.10
2022-12-13T23:04:32.788Z,-5.10
2022-12-13T23:06:59.738Z,-5.10
2022-12-13T23:09:26.617Z,-5.10
2022-12-13T23:12:11.811Z,-5.20
2022-12-13T23:14:38.610Z,-5.10
2022-12-13T23:17:06.898Z,-5.10
2022-12-13T23:19:49.581Z,-5.20
2022-12-13T23:22:19.802Z,-5.10
2022-12-13T23:24:46.574Z,-5.20
2022-12-13T23:27:13.407Z,-5.20
2022-12-13T23:29:40.475Z,-5.20
2022-12-13T23:32:07.298Z,-5.20
2022-12-13T23:34:34.227Z,-5.20
2022-12-13T23:37:01.004Z,-5.20
2022-12-13T23:39:27.893Z,-5.20
2022-12-13T23:41:55.232Z,-5.30
2022-12-13T23:44:22.252Z,-5.30
2022-12-13T23:46:49.190Z,-5.20
2022-12-13T23:49:17.604Z,-5.20
2022-12-13T23:51:44.768Z,-5.20
2022-12-13T23:54:16.430Z,-5.20
2022-12-13T23:56:43.757Z,-5.20
2022-12-13T23:59:10.952Z,-5.30
